sensor_id;sensor_type;location;lat;lon;timestamp;P1;durP1;ratioP1;P2;durP2;ratioP2
13967;SDS011;39536;52.198;9.920;2023-03-08T00:02:12;8.63;;;7.83;;
13967;SDS011;39536;52.198;9.920;2023-03-08T00:04:39;9.13;;;8.37;;
13967;SDS011;39536;52.198;9.920;2023-03-08T00:07:05;9.07;;;8.20;;
13967;SDS011;39536;52.198;9.920;2023-03-08T00:09:32;10.17;;;7.53;;
13967;SDS011;39536;52.198;9.920;2023-03-08T00:12:00;8.43;;;7.63;;
13967;SDS011;39536;52.198;9.920;2023-03-08T00:14:27;9.10;;;8.30;;
13967;SDS011;39536;52.198;9.920;2023-03-08T00:16:53;6.60;;;6.10;;
13967;SDS011;39536;52.198;9.920;2023-03-08T00:19:20;7.80;;;6.93;;
13967;SDS011;39536;52.198;9.920;2023-03-08T00:21:46;8.67;;;7.07;;
13967;SDS011;39536;52.198;9.920;2023-03-08T00:24:13;8.10;;;7.13;;
13967;SDS011;39536;52.198;9.920;2023-03-08T00:26:41;6.30;;;5.70;;
13967;SDS011;39536;52.198;9.920;2023-03-08T00:29:09;6.20;;;5.70;;
13967;SDS011;39536;52.198;9.920;2023-03-08T00:31:36;8.30;;;7.50;;
13967;SDS011;39536;52.198;9.920;2023-03-08T00:34:03;7.63;;;6.93;;
13967;SDS011;39536;52.198;9.920;2023-03-08T00:36:29;7.37;;;6.70;;
13967;SDS011;39536;52.198;9.920;2023-03-08T00:38:56;8.03;;;7.33;;
13967;SDS011;39536;52.198;9.920;2023-03-08T00:41:22;7.77;;;7.07;;
13967;SDS011;39536;52.198;9.920;2023-03-08T00:43:49;7.93;;;6.40;;
13967;SDS011;39536;52.198;9.920;2023-03-08T00:46:17;9.57;;;6.67;;
13967;SDS011;39536;52.198;9.920;2023-03-08T00:48:44;7.13;;;6.47;;
13967;SDS011;39536;52.198;9.920;2023-03-08T00:51:11;7.70;;;6.70;;
13967;SDS011;39536;52.198;9.920;2023-03-08T00:53:39;6.97;;;6.07;;
13967;SDS011;39536;52.198;9.920;2023-03-08T00:56:06;7.13;;;6.43;;
13967;SDS011;39536;52.198;9.920;2023-03-08T00:58:32;6.93;;;6.33;;
13967;SDS011;39536;52.198;9.920;2023-03-08T01:00:59;6.87;;;6.27;;
13967;SDS011;39536;52.198;9.920;2023-03-08T01:03:27;8.93;;;6.30;;
13967;SDS011;39536;52.198;9.920;2023-03-08T01:05:54;6.27;;;5.70;;
13967;SDS011;39536;52.198;9.920;2023-03-08T01:08:22;6.23;;;5.73;;
13967;SDS011;39536;52.198;9.920;2023-03-08T01:10:50;6.77;;;6.27;;
13967;SDS011;39536;52.198;9.920;2023-03-08T01:13:19;6.50;;;5.90;;
13967;SDS011;39536;52.198;9.920;2023-03-08T01:15:46;6.17;;;5.30;;
13967;SDS011;39536;52.198;9.920;2023-03-08T01:18:13;6.53;;;4.83;;
13967;SDS011;39536;52.198;9.920;2023-03-08T01:20:41;7.20;;;5.50;;
13967;SDS011;39536;52.198;9.920;2023-03-08T01:23:08;5.80;;;5.03;;
13967;SDS011;39536;52.198;9.920;2023-03-08T01:25:34;5.37;;;4.90;;
13967;SDS011;39536;52.198;9.920;2023-03-08T01:28:01;6.07;;;5.47;;
13967;SDS011;39536;52.198;9.920;2023-03-08T01:30:28;5.83;;;5.43;;
13967;SDS011;39536;52.198;9.920;2023-03-08T01:32:55;5.67;;;5.27;;
13967;SDS011;39536;52.198;9.920;2023-03-08T01:35:21;6.10;;;5.50;;
13967;SDS011;39536;52.198;9.920;2023-03-08T01:40:25;6.30;;;4.80;;
13967;SDS011;39536;52.198;9.920;2023-03-08T01:42:52;4.93;;;4.53;;
13967;SDS011;39536;52.198;9.920;2023-03-08T01:48:23;5.37;;;4.97;;
13967;SDS011;39536;52.198;9.920;2023-03-08T01:50:56;6.93;;;5.10;;
13967;SDS011;39536;52.198;9.920;2023-03-08T01:53:24;7.93;;;5.53;;
13967;SDS011;39536;52.198;9.920;2023-03-08T01:55:52;6.63;;;5.07;;
13967;SDS011;39536;52.198;9.920;2023-03-08T01:58:19;6.60;;;5.40;;
13967;SDS011;39536;52.198;9.920;2023-03-08T02:00:47;5.40;;;5.00;;
13967;SDS011;39536;52.198;9.920;2023-03-08T02:03:20;5.80;;;5.20;;
13967;SDS011;39536;52.198;9.920;2023-03-08T02:06:04;5.73;;;4.87;;
13967;SDS011;39536;52.198;9.920;2023-03-08T02:08:50;6.23;;;5.37;;
13967;SDS011;39536;52.198;9.920;2023-03-08T02:11:18;5.80;;;5.30;;
13967;SDS011;39536;52.198;9.920;2023-03-08T02:13:47;6.17;;;5.67;;
13967;SDS011;39536;52.198;9.920;2023-03-08T02:16:16;7.13;;;5.87;;
13967;SDS011;39536;52.198;9.920;2023-03-08T02:18:50;6.33;;;5.83;;
13967;SDS011;39536;52.198;9.920;2023-03-08T02:21:18;5.93;;;5.37;;
13967;SDS011;39536;52.198;9.920;2023-03-08T02:23:55;6.57;;;5.97;;
13967;SDS011;39536;52.198;9.920;2023-03-08T02:27:18;7.80;;;5.93;;
13967;SDS011;39536;52.198;9.920;2023-03-08T02:30:11;7.17;;;6.00;;
13967;SDS011;39536;52.198;9.920;2023-03-08T02:32:45;5.67;;;5.27;;
13967;SDS011;39536;52.198;9.920;2023-03-08T02:35:15;7.70;;;5.77;;
13967;SDS011;39536;52.198;9.920;2023-03-08T02:37:59;6.90;;;6.30;;
13967;SDS011;39536;52.198;9.920;2023-03-08T02:40:33;7.83;;;6.90;;
13967;SDS011;39536;52.198;9.920;2023-03-08T02:43:13;7.23;;;6.13;;
13967;SDS011;39536;52.198;9.920;2023-03-08T02:45:49;8.17;;;7.47;;
13967;SDS011;39536;52.198;9.920;2023-03-08T02:48:16;7.00;;;6.40;;
13967;SDS011;39536;52.198;9.920;2023-03-08T02:50:43;9.30;;;7.37;;
13967;SDS011;39536;52.198;9.920;2023-03-08T02:53:10;7.73;;;6.97;;
13967;SDS011;39536;52.198;9.920;2023-03-08T02:55:38;7.53;;;6.83;;
13967;SDS011;39536;52.198;9.920;2023-03-08T02:58:05;9.30;;;8.50;;
13967;SDS011;39536;52.198;9.920;2023-03-08T03:00:33;8.70;;;7.90;;
13967;SDS011;39536;52.198;9.920;2023-03-08T03:03:00;9.07;;;8.07;;
13967;SDS011;39536;52.198;9.920;2023-03-08T03:05:27;9.27;;;8.23;;
13967;SDS011;39536;52.198;9.920;2023-03-08T03:07:53;9.00;;;8.20;;
13967;SDS011;39536;52.198;9.920;2023-03-08T03:10:22;9.50;;;8.50;;
13967;SDS011;39536;52.198;9.920;2023-03-08T03:12:50;10.03;;;9.03;;
13967;SDS011;39536;52.198;9.920;2023-03-08T03:15:17;10.10;;;9.10;;
13967;SDS011;39536;52.198;9.920;2023-03-08T03:17:44;9.77;;;8.87;;
13967;SDS011;39536;52.198;9.920;2023-03-08T03:20:11;10.00;;;8.90;;
13967;SDS011;39536;52.198;9.920;2023-03-08T03:22:38;11.87;;;10.10;;
13967;SDS011;39536;52.198;9.920;2023-03-08T03:25:05;14.17;;;9.53;;
13967;SDS011;39536;52.198;9.920;2023-03-08T03:27:32;11.07;;;9.97;;
13967;SDS011;39536;52.198;9.920;2023-03-08T03:30:00;10.00;;;9.10;;
13967;SDS011;39536;52.198;9.920;2023-03-08T03:32:27;9.93;;;8.97;;
13967;SDS011;39536;52.198;9.920;2023-03-08T03:34:53;11.23;;;10.13;;
13967;SDS011;39536;52.198;9.920;2023-03-08T03:37:20;12.00;;;10.80;;
13967;SDS011;39536;52.198;9.920;2023-03-08T03:39:46;10.90;;;9.90;;
13967;SDS011;39536;52.198;9.920;2023-03-08T03:42:13;10.77;;;9.73;;
13967;SDS011;39536;52.198;9.920;2023-03-08T03:44:40;11.00;;;9.90;;
13967;SDS011;39536;52.198;9.920;2023-03-08T03:47:08;11.70;;;10.53;;
13967;SDS011;39536;52.198;9.920;2023-03-08T03:49:35;10.53;;;9.53;;
13967;SDS011;39536;52.198;9.920;2023-03-08T03:52:02;11.07;;;9.97;;
13967;SDS011;39536;52.198;9.920;2023-03-08T03:54:29;10.03;;;9.03;;
13967;SDS011;39536;52.198;9.920;2023-03-08T03:56:55;11.50;;;9.40;;
13967;SDS011;39536;52.198;9.920;2023-03-08T03:59:24;12.00;;;9.20;;
13967;SDS011;39536;52.198;9.920;2023-03-08T04:01:51;11.13;;;10.03;;
13967;SDS011;39536;52.198;9.920;2023-03-08T04:04:19;11.10;;;9.33;;
13967;SDS011;39536;52.198;9.920;2023-03-08T04:06:46;9.90;;;9.00;;
13967;SDS011;39536;52.198;9.920;2023-03-08T04:09:13;10.57;;;9.53;;
13967;SDS011;39536;52.198;9.920;2023-03-08T04:11:41;10.50;;;9.37;;
13967;SDS011;39536;52.198;9.920;2023-03-08T04:14:08;12.20;;;9.10;;
13967;SDS011;39536;52.198;9.920;2023-03-08T04:16:35;10.13;;;9.10;;
13967;SDS011;39536;52.198;9.920;2023-03-08T04:19:04;11.67;;;8.73;;
13967;SDS011;39536;52.198;9.920;2023-03-08T04:21:43;9.93;;;8.80;;
13967;SDS011;39536;52.198;9.920;2023-03-08T04:24:59;9.53;;;8.23;;
13967;SDS011;39536;52.198;9.920;2023-03-08T04:30:33;9.00;;;8.10;;
13967;SDS011;39536;52.198;9.920;2023-03-08T04:33:00;8.60;;;7.70;;
13967;SDS011;39536;52.198;9.920;2023-03-08T04:35:26;10.33;;;9.23;;
13967;SDS011;39536;52.198;9.920;2023-03-08T04:37:54;9.57;;;8.63;;
13967;SDS011;39536;52.198;9.920;2023-03-08T04:40:21;9.03;;;8.13;;
13967;SDS011;39536;52.198;9.920;2023-03-08T04:42:47;12.10;;;7.40;;
13967;SDS011;39536;52.198;9.920;2023-03-08T04:45:14;7.70;;;7.00;;
13967;SDS011;39536;52.198;9.920;2023-03-08T04:47:41;7.27;;;6.50;;
13967;SDS011;39536;52.198;9.920;2023-03-08T04:50:08;7.70;;;7.00;;
13967;SDS011;39536;52.198;9.920;2023-03-08T04:52:35;7.90;;;7.20;;
13967;SDS011;39536;52.198;9.920;2023-03-08T04:55:04;7.53;;;6.83;;
13967;SDS011;39536;52.198;9.920;2023-03-08T04:57:31;7.77;;;7.07;;
13967;SDS011;39536;52.198;9.920;2023-03-08T04:59:59;7.53;;;6.90;;
13967;SDS011;39536;52.198;9.920;2023-03-08T05:02:25;6.73;;;6.10;;
13967;SDS011;39536;52.198;9.920;2023-03-08T05:04:52;8.57;;;6.93;;
13967;SDS011;39536;52.198;9.920;2023-03-08T05:07:19;6.67;;;6.07;;
13967;SDS011;39536;52.198;9.920;2023-03-08T05:09:45;6.60;;;6.00;;
13967;SDS011;39536;52.198;9.920;2023-03-08T05:12:13;7.67;;;7.00;;
13967;SDS011;39536;52.198;9.920;2023-03-08T05:14:40;7.80;;;7.00;;
13967;SDS011;39536;52.198;9.920;2023-03-08T05:17:15;7.77;;;6.97;;
13967;SDS011;39536;52.198;9.920;2023-03-08T05:19:42;7.13;;;6.47;;
13967;SDS011;39536;52.198;9.920;2023-03-08T05:22:08;11.23;;;7.50;;
13967;SDS011;39536;52.198;9.920;2023-03-08T05:24:36;7.03;;;6.33;;
13967;SDS011;39536;52.198;9.920;2023-03-08T05:27:05;7.33;;;6.70;;
13967;SDS011;39536;52.198;9.920;2023-03-08T05:29:33;7.30;;;6.70;;
13967;SDS011;39536;52.198;9.920;2023-03-08T05:32:01;6.90;;;6.30;;
13967;SDS011;39536;52.198;9.920;2023-03-08T05:34:28;6.17;;;5.67;;
13967;SDS011;39536;52.198;9.920;2023-03-08T05:36:55;7.60;;;6.20;;
13967;SDS011;39536;52.198;9.920;2023-03-08T05:39:22;7.57;;;6.07;;
13967;SDS011;39536;52.198;9.920;2023-03-08T05:41:49;7.23;;;6.13;;
13967;SDS011;39536;52.198;9.920;2023-03-08T05:44:16;7.00;;;6.40;;
13967;SDS011;39536;52.198;9.920;2023-03-08T05:46:43;6.90;;;5.90;;
13967;SDS011;39536;52.198;9.920;2023-03-08T05:49:10;7.37;;;6.63;;
13967;SDS011;39536;52.198;9.920;2023-03-08T05:51:37;7.03;;;6.43;;
13967;SDS011;39536;52.198;9.920;2023-03-08T05:54:03;7.23;;;6.53;;
13967;SDS011;39536;52.198;9.920;2023-03-08T05:56:30;7.00;;;6.40;;
13967;SDS011;39536;52.198;9.920;2023-03-08T05:58:57;7.80;;;6.83;;
13967;SDS011;39536;52.198;9.920;2023-03-08T06:01:24;7.90;;;7.10;;
13967;SDS011;39536;52.198;9.920;2023-03-08T06:03:54;6.93;;;6.30;;
13967;SDS011;39536;52.198;9.920;2023-03-08T06:06:22;8.63;;;7.73;;
13967;SDS011;39536;52.198;9.920;2023-03-08T06:08:50;7.63;;;6.93;;
13967;SDS011;39536;52.198;9.920;2023-03-08T06:11:18;11.20;;;7.67;;
13967;SDS011;39536;52.198;9.920;2023-03-08T06:13:45;9.23;;;8.20;;
13967;SDS011;39536;52.198;9.920;2023-03-08T06:16:11;10.87;;;8.93;;
13967;SDS011;39536;52.198;9.920;2023-03-08T06:18:39;10.17;;;8.27;;
13967;SDS011;39536;52.198;9.920;2023-03-08T06:21:09;12.13;;;9.40;;
13967;SDS011;39536;52.198;9.920;2023-03-08T06:23:37;9.53;;;8.70;;
13967;SDS011;39536;52.198;9.920;2023-03-08T06:26:05;10.37;;;9.30;;
13967;SDS011;39536;52.198;9.920;2023-03-08T06:28:33;10.20;;;9.23;;
13967;SDS011;39536;52.198;9.920;2023-03-08T06:31:00;12.13;;;9.67;;
13967;SDS011;39536;52.198;9.920;2023-03-08T06:33:27;9.30;;;8.40;;
13967;SDS011;39536;52.198;9.920;2023-03-08T06:35:56;10.67;;;9.67;;
13967;SDS011;39536;52.198;9.920;2023-03-08T06:38:25;10.40;;;9.50;;
13967;SDS011;39536;52.198;9.920;2023-03-08T06:40:53;11.67;;;10.47;;
13967;SDS011;39536;52.198;9.920;2023-03-08T06:43:20;11.43;;;10.33;;
13967;SDS011;39536;52.198;9.920;2023-03-08T06:45:46;11.43;;;10.33;;
13967;SDS011;39536;52.198;9.920;2023-03-08T06:48:13;13.83;;;10.87;;
13967;SDS011;39536;52.198;9.920;2023-03-08T06:50:40;12.97;;;11.67;;
13967;SDS011;39536;52.198;9.920;2023-03-08T06:53:06;11.43;;;10.33;;
13967;SDS011;39536;52.198;9.920;2023-03-08T06:55:35;12.37;;;11.17;;
13967;SDS011;39536;52.198;9.920;2023-03-08T06:58:02;12.87;;;11.50;;
13967;SDS011;39536;52.198;9.920;2023-03-08T07:00:29;17.10;;;12.77;;
13967;SDS011;39536;52.198;9.920;2023-03-08T07:02:56;15.07;;;11.70;;
13967;SDS011;39536;52.198;9.920;2023-03-08T07:05:23;15.03;;;12.03;;
13967;SDS011;39536;52.198;9.920;2023-03-08T07:07:50;12.37;;;11.10;;
13967;SDS011;39536;52.198;9.920;2023-03-08T07:10:17;14.63;;;12.13;;
13967;SDS011;39536;52.198;9.920;2023-03-08T07:12:46;12.83;;;11.40;;
13967;SDS011;39536;52.198;9.920;2023-03-08T07:15:15;13.77;;;11.20;;
13967;SDS011;39536;52.198;9.920;2023-03-08T07:17:43;12.17;;;10.97;;
13967;SDS011;39536;52.198;9.920;2023-03-08T07:20:11;12.03;;;10.83;;
13967;SDS011;39536;52.198;9.920;2023-03-08T07:22:39;12.87;;;11.67;;
13967;SDS011;39536;52.198;9.920;2023-03-08T07:25:08;13.00;;;11.70;;
13967;SDS011;39536;52.198;9.920;2023-03-08T07:27:38;13.23;;;11.83;;
13967;SDS011;39536;52.198;9.920;2023-03-08T07:30:06;14.17;;;11.37;;
13967;SDS011;39536;52.198;9.920;2023-03-08T07:32:34;13.53;;;12.13;;
13967;SDS011;39536;52.198;9.920;2023-03-08T07:35:04;14.23;;;12.73;;
13967;SDS011;39536;52.198;9.920;2023-03-08T07:37:31;14.53;;;13.13;;
13967;SDS011;39536;52.198;9.920;2023-03-08T07:39:58;15.17;;;13.67;;
13967;SDS011;39536;52.198;9.920;2023-03-08T07:42:25;13.20;;;11.97;;
13967;SDS011;39536;52.198;9.920;2023-03-08T07:44:52;15.57;;;14.07;;
13967;SDS011;39536;52.198;9.920;2023-03-08T07:47:20;15.80;;;13.40;;
13967;SDS011;39536;52.198;9.920;2023-03-08T07:49:46;14.77;;;13.37;;
13967;SDS011;39536;52.198;9.920;2023-03-08T07:52:13;13.20;;;11.93;;
13967;SDS011;39536;52.198;9.920;2023-03-08T07:54:40;14.40;;;13.07;;
13967;SDS011;39536;52.198;9.920;2023-03-08T07:57:09;13.20;;;11.90;;
13967;SDS011;39536;52.198;9.920;2023-03-08T07:59:37;13.30;;;12.10;;
13967;SDS011;39536;52.198;9.920;2023-03-08T08:02:04;15.43;;;12.53;;
13967;SDS011;39536;52.198;9.920;2023-03-08T08:04:32;13.40;;;12.10;;
13967;SDS011;39536;52.198;9.920;2023-03-08T08:06:59;16.07;;;12.57;;
13967;SDS011;39536;52.198;9.920;2023-03-08T08:09:26;12.83;;;11.53;;
13967;SDS011;39536;52.198;9.920;2023-03-08T08:11:53;14.93;;;12.60;;
13967;SDS011;39536;52.198;9.920;2023-03-08T08:14:19;13.40;;;12.00;;
13967;SDS011;39536;52.198;9.920;2023-03-08T08:16:46;16.40;;;12.17;;
13967;SDS011;39536;52.198;9.920;2023-03-08T08:19:12;13.40;;;12.20;;
13967;SDS011;39536;52.198;9.920;2023-03-08T08:21:41;16.80;;;12.87;;
13967;SDS011;39536;52.198;9.920;2023-03-08T08:24:07;14.83;;;13.33;;
13967;SDS011;39536;52.198;9.920;2023-03-08T08:26:35;16.90;;;13.83;;
13967;SDS011;39536;52.198;9.920;2023-03-08T08:29:01;14.90;;;13.40;;
13967;SDS011;39536;52.198;9.920;2023-03-08T08:31:28;15.53;;;13.93;;
13967;SDS011;39536;52.198;9.920;2023-03-08T08:33:56;15.90;;;14.30;;
13967;SDS011;39536;52.198;9.920;2023-03-08T08:36:23;15.17;;;13.60;;
13967;SDS011;39536;52.198;9.920;2023-03-08T08:38:51;15.60;;;14.07;;
13967;SDS011;39536;52.198;9.920;2023-03-08T08:41:19;15.90;;;14.30;;
13967;SDS011;39536;52.198;9.920;2023-03-08T08:43:46;16.83;;;15.23;;
13967;SDS011;39536;52.198;9.920;2023-03-08T08:46:14;16.80;;;14.90;;
13967;SDS011;39536;52.198;9.920;2023-03-08T08:48:41;16.17;;;14.67;;
13967;SDS011;39536;52.198;9.920;2023-03-08T08:51:10;17.73;;;16.03;;
13967;SDS011;39536;52.198;9.920;2023-03-08T08:53:38;15.97;;;14.37;;
13967;SDS011;39536;52.198;9.920;2023-03-08T08:56:12;18.50;;;16.53;;
13967;SDS011;39536;52.198;9.920;2023-03-08T08:58:41;17.60;;;14.83;;
13967;SDS011;39536;52.198;9.920;2023-03-08T09:01:13;17.13;;;15.30;;
13967;SDS011;39536;52.198;9.920;2023-03-08T09:03:42;16.03;;;14.47;;
13967;SDS011;39536;52.198;9.920;2023-03-08T09:06:09;32.13;;;19.37;;
13967;SDS011;39536;52.198;9.920;2023-03-08T09:08:36;17.43;;;15.77;;
13967;SDS011;39536;52.198;9.920;2023-03-08T09:11:03;19.83;;;16.63;;
13967;SDS011;39536;52.198;9.920;2023-03-08T09:13:32;19.60;;;17.53;;
13967;SDS011;39536;52.198;9.920;2023-03-08T09:15:59;17.33;;;15.07;;
13967;SDS011;39536;52.198;9.920;2023-03-08T09:18:26;17.43;;;15.60;;
13967;SDS011;39536;52.198;9.920;2023-03-08T09:20:52;18.80;;;15.67;;
13967;SDS011;39536;52.198;9.920;2023-03-08T09:23:19;25.37;;;16.50;;
13967;SDS011;39536;52.198;9.920;2023-03-08T09:25:53;16.47;;;14.77;;
13967;SDS011;39536;52.198;9.920;2023-03-08T09:28:21;15.83;;;14.43;;
13967;SDS011;39536;52.198;9.920;2023-03-08T09:30:49;21.03;;;15.90;;
13967;SDS011;39536;52.198;9.920;2023-03-08T09:33:16;17.40;;;15.43;;
13967;SDS011;39536;52.198;9.920;2023-03-08T09:35:42;15.57;;;14.07;;
13967;SDS011;39536;52.198;9.920;2023-03-08T09:38:09;15.93;;;14.43;;
13967;SDS011;39536;52.198;9.920;2023-03-08T09:40:37;16.93;;;15.17;;
13967;SDS011;39536;52.198;9.920;2023-03-08T09:43:11;17.07;;;14.47;;
13967;SDS011;39536;52.198;9.920;2023-03-08T09:45:46;16.77;;;15.07;;
13967;SDS011;39536;52.198;9.920;2023-03-08T09:48:19;16.70;;;14.20;;
13967;SDS011;39536;52.198;9.920;2023-03-08T09:50:51;14.33;;;12.87;;
13967;SDS011;39536;52.198;9.920;2023-03-08T09:53:20;17.57;;;15.70;;
13967;SDS011;39536;52.198;9.920;2023-03-08T09:55:53;17.33;;;14.67;;
13967;SDS011;39536;52.198;9.920;2023-03-08T09:58:26;19.37;;;13.60;;
13967;SDS011;39536;52.198;9.920;2023-03-08T10:00:58;14.50;;;13.03;;
13967;SDS011;39536;52.198;9.920;2023-03-08T10:06:30;16.07;;;14.20;;
13967;SDS011;39536;52.198;9.920;2023-03-08T10:09:00;17.17;;;13.50;;
13967;SDS011;39536;52.198;9.920;2023-03-08T10:11:35;14.57;;;13.13;;
13967;SDS011;39536;52.198;9.920;2023-03-08T10:14:09;20.20;;;14.63;;
13967;SDS011;39536;52.198;9.920;2023-03-08T10:16:43;16.70;;;11.93;;
13967;SDS011;39536;52.198;9.920;2023-03-08T10:19:15;16.43;;;13.90;;
13967;SDS011;39536;52.198;9.920;2023-03-08T10:21:45;35.17;;;15.87;;
13967;SDS011;39536;52.198;9.920;2023-03-08T10:24:13;14.50;;;13.03;;
13967;SDS011;39536;52.198;9.920;2023-03-08T10:26:42;17.23;;;13.27;;
13967;SDS011;39536;52.198;9.920;2023-03-08T10:29:10;15.77;;;13.47;;
13967;SDS011;39536;52.198;9.920;2023-03-08T10:31:38;18.53;;;13.33;;
13967;SDS011;39536;52.198;9.920;2023-03-08T10:34:11;14.77;;;13.30;;
13967;SDS011;39536;52.198;9.920;2023-03-08T10:36:47;15.53;;;14.07;;
13967;SDS011;39536;52.198;9.920;2023-03-08T10:39:16;14.30;;;11.60;;
13967;SDS011;39536;52.198;9.920;2023-03-08T10:41:44;15.20;;;13.07;;
13967;SDS011;39536;52.198;9.920;2023-03-08T10:44:13;15.47;;;13.87;;
13967;SDS011;39536;52.198;9.920;2023-03-08T10:46:55;37.93;;;15.00;;
13967;SDS011;39536;52.198;9.920;2023-03-08T10:49:22;17.93;;;12.33;;
13967;SDS011;39536;52.198;9.920;2023-03-08T10:51:54;14.63;;;11.50;;
13967;SDS011;39536;52.198;9.920;2023-03-08T10:54:22;15.80;;;14.10;;
13967;SDS011;39536;52.198;9.920;2023-03-08T10:56:52;20.10;;;11.10;;
13967;SDS011;39536;52.198;9.920;2023-03-08T10:59:22;12.73;;;11.37;;
13967;SDS011;39536;52.198;9.920;2023-03-08T11:01:58;16.97;;;10.53;;
13967;SDS011;39536;52.198;9.920;2023-03-08T11:04:26;13.93;;;9.57;;
13967;SDS011;39536;52.198;9.920;2023-03-08T11:06:54;22.30;;;14.57;;
13967;SDS011;39536;52.198;9.920;2023-03-08T11:09:22;9.67;;;8.77;;
13967;SDS011;39536;52.198;9.920;2023-03-08T11:11:51;9.13;;;8.23;;
13967;SDS011;39536;52.198;9.920;2023-03-08T11:14:18;9.60;;;6.93;;
13967;SDS011;39536;52.198;9.920;2023-03-08T11:16:50;7.93;;;7.23;;
13967;SDS011;39536;52.198;9.920;2023-03-08T11:19:48;6.77;;;6.17;;
13967;SDS011;39536;52.198;9.920;2023-03-08T11:22:27;5.97;;;5.47;;
13967;SDS011;39536;52.198;9.920;2023-03-08T11:25:10;6.43;;;5.43;;
13967;SDS011;39536;52.198;9.920;2023-03-08T11:27:46;23.97;;;7.50;;
13967;SDS011;39536;52.198;9.920;2023-03-08T11:30:25;14.50;;;7.80;;
13967;SDS011;39536;52.198;9.920;2023-03-08T11:36:09;3.87;;;3.57;;
13967;SDS011;39536;52.198;9.920;2023-03-08T11:38:42;4.13;;;3.83;;
13967;SDS011;39536;52.198;9.920;2023-03-08T11:41:19;4.80;;;4.10;;
13967;SDS011;39536;52.198;9.920;2023-03-08T11:43:56;3.73;;;3.43;;
13967;SDS011;39536;52.198;9.920;2023-03-08T11:46:36;3.77;;;3.47;;
13967;SDS011;39536;52.198;9.920;2023-03-08T11:49:20;3.77;;;3.47;;
13967;SDS011;39536;52.198;9.920;2023-03-08T11:52:03;4.13;;;3.77;;
13967;SDS011;39536;52.198;9.920;2023-03-08T11:54:45;3.50;;;3.27;;
13967;SDS011;39536;52.198;9.920;2023-03-08T11:57:23;3.70;;;3.40;;
13967;SDS011;39536;52.198;9.920;2023-03-08T11:59:54;4.67;;;3.90;;
13967;SDS011;39536;52.198;9.920;2023-03-08T12:02:26;3.27;;;3.00;;
13967;SDS011;39536;52.198;9.920;2023-03-08T12:04:56;3.43;;;3.13;;
13967;SDS011;39536;52.198;9.920;2023-03-08T12:07:31;2.20;;;2.00;;
13967;SDS011;39536;52.198;9.920;2023-03-08T12:10:03;2.10;;;1.90;;
13967;SDS011;39536;52.198;9.920;2023-03-08T12:12:40;2.13;;;1.93;;
13967;SDS011;39536;52.198;9.920;2023-03-08T12:15:23;2.57;;;2.37;;
13967;SDS011;39536;52.198;9.920;2023-03-08T12:17:55;3.63;;;3.00;;
13967;SDS011;39536;52.198;9.920;2023-03-08T12:20:27;2.30;;;2.10;;
13967;SDS011;39536;52.198;9.920;2023-03-08T12:23:02;2.90;;;2.70;;
13967;SDS011;39536;52.198;9.920;2023-03-08T12:25:39;3.60;;;3.33;;
13967;SDS011;39536;52.198;9.920;2023-03-08T12:28:10;4.40;;;4.10;;
13967;SDS011;39536;52.198;9.920;2023-03-08T12:30:43;5.33;;;4.83;;
13967;SDS011;39536;52.198;9.920;2023-03-08T12:33:20;5.50;;;5.00;;
13967;SDS011;39536;52.198;9.920;2023-03-08T12:35:49;4.77;;;4.47;;
13967;SDS011;39536;52.198;9.920;2023-03-08T12:38:27;6.13;;;5.27;;
13967;SDS011;39536;52.198;9.920;2023-03-08T12:40:57;4.40;;;4.10;;
13967;SDS011;39536;52.198;9.920;2023-03-08T12:43:27;4.47;;;4.07;;
13967;SDS011;39536;52.198;9.920;2023-03-08T12:46:03;5.57;;;5.07;;
13967;SDS011;39536;52.198;9.920;2023-03-08T12:48:33;5.10;;;4.37;;
13967;SDS011;39536;52.198;9.920;2023-03-08T12:51:05;8.40;;;3.80;;
13967;SDS011;39536;52.198;9.920;2023-03-08T12:53:45;4.10;;;3.80;;
13967;SDS011;39536;52.198;9.920;2023-03-08T12:56:22;4.40;;;3.47;;
13967;SDS011;39536;52.198;9.920;2023-03-08T12:58:51;4.63;;;3.33;;
13967;SDS011;39536;52.198;9.920;2023-03-08T13:01:26;4.80;;;4.40;;
13967;SDS011;39536;52.198;9.920;2023-03-08T13:03:55;5.50;;;4.93;;
13967;SDS011;39536;52.198;9.920;2023-03-08T13:09:32;5.93;;;5.20;;
13967;SDS011;39536;52.198;9.920;2023-03-08T13:12:10;4.63;;;4.23;;
13967;SDS011;39536;52.198;9.920;2023-03-08T13:14:45;7.17;;;6.30;;
13967;SDS011;39536;52.198;9.920;2023-03-08T13:17:34;7.50;;;6.60;;
13967;SDS011;39536;52.198;9.920;2023-03-08T13:20:10;7.70;;;7.03;;
13967;SDS011;39536;52.198;9.920;2023-03-08T13:22:44;7.87;;;7.10;;
13967;SDS011;39536;52.198;9.920;2023-03-08T13:25:30;7.10;;;6.23;;
13967;SDS011;39536;52.198;9.920;2023-03-08T13:28:05;6.73;;;6.23;;
13967;SDS011;39536;52.198;9.920;2023-03-08T13:30:34;7.37;;;6.10;;
13967;SDS011;39536;52.198;9.920;2023-03-08T13:33:05;6.63;;;6.13;;
13967;SDS011;39536;52.198;9.920;2023-03-08T13:35:34;6.57;;;6.00;;
13967;SDS011;39536;52.198;9.920;2023-03-08T13:38:01;9.20;;;7.17;;
13967;SDS011;39536;52.198;9.920;2023-03-08T13:40:29;5.77;;;5.27;;
13967;SDS011;39536;52.198;9.920;2023-03-08T13:42:56;8.80;;;8.00;;
13967;SDS011;39536;52.198;9.920;2023-03-08T13:45:26;8.27;;;7.50;;
13967;SDS011;39536;52.198;9.920;2023-03-08T13:47:53;8.03;;;7.33;;
13967;SDS011;39536;52.198;9.920;2023-03-08T13:50:25;8.40;;;7.60;;
13967;SDS011;39536;52.198;9.920;2023-03-08T13:52:55;6.63;;;6.07;;
13967;SDS011;39536;52.198;9.920;2023-03-08T13:55:24;7.43;;;6.73;;
13967;SDS011;39536;52.198;9.920;2023-03-08T13:57:56;7.20;;;6.60;;
13967;SDS011;39536;52.198;9.920;2023-03-08T14:00:25;7.53;;;6.87;;
13967;SDS011;39536;52.198;9.920;2023-03-08T14:02:54;7.70;;;7.10;;
13967;SDS011;39536;52.198;9.920;2023-03-08T14:05:23;7.67;;;6.97;;
13967;SDS011;39536;52.198;9.920;2023-03-08T14:07:55;7.83;;;7.13;;
13967;SDS011;39536;52.198;9.920;2023-03-08T14:10:23;8.03;;;7.40;;
13967;SDS011;39536;52.198;9.920;2023-03-08T14:12:56;7.23;;;6.63;;
13967;SDS011;39536;52.198;9.920;2023-03-08T14:15:23;7.80;;;7.10;;
13967;SDS011;39536;52.198;9.920;2023-03-08T14:17:50;8.00;;;7.30;;
13967;SDS011;39536;52.198;9.920;2023-03-08T14:20:18;7.73;;;6.93;;
13967;SDS011;39536;52.198;9.920;2023-03-08T14:22:46;7.87;;;7.10;;
13967;SDS011;39536;52.198;9.920;2023-03-08T14:25:22;8.90;;;8.10;;
13967;SDS011;39536;52.198;9.920;2023-03-08T14:27:51;9.07;;;8.27;;
13967;SDS011;39536;52.198;9.920;2023-03-08T14:30:20;11.23;;;9.10;;
13967;SDS011;39536;52.198;9.920;2023-03-08T14:32:55;7.67;;;7.07;;
13967;SDS011;39536;52.198;9.920;2023-03-08T14:35:27;8.50;;;7.80;;
13967;SDS011;39536;52.198;9.920;2023-03-08T14:37:56;7.90;;;7.20;;
13967;SDS011;39536;52.198;9.920;2023-03-08T14:40:24;8.17;;;7.47;;
13967;SDS011;39536;52.198;9.920;2023-03-08T14:42:53;7.87;;;7.17;;
13967;SDS011;39536;52.198;9.920;2023-03-08T14:45:23;8.53;;;7.73;;
13967;SDS011;39536;52.198;9.920;2023-03-08T14:47:57;8.53;;;7.83;;
13967;SDS011;39536;52.198;9.920;2023-03-08T14:50:26;9.47;;;8.57;;
13967;SDS011;39536;52.198;9.920;2023-03-08T14:52:55;10.53;;;8.70;;
13967;SDS011;39536;52.198;9.920;2023-03-08T14:55:23;10.13;;;9.23;;
13967;SDS011;39536;52.198;9.920;2023-03-08T14:57:51;10.03;;;9.03;;
13967;SDS011;39536;52.198;9.920;2023-03-08T15:00:20;11.60;;;10.53;;
13967;SDS011;39536;52.198;9.920;2023-03-08T15:02:51;12.13;;;10.93;;
13967;SDS011;39536;52.198;9.920;2023-03-08T15:05:18;11.77;;;10.67;;
13967;SDS011;39536;52.198;9.920;2023-03-08T15:07:47;12.30;;;11.20;;
13967;SDS011;39536;52.198;9.920;2023-03-08T15:10:18;12.63;;;11.30;;
13967;SDS011;39536;52.198;9.920;2023-03-08T15:12:49;12.33;;;11.23;;